createdAt,value
2023-02-01T00:01:09.781Z,58.59
2023-02-01T00:03:37.409Z,58.69
2023-02-01T00:06:05.071Z,58.80
2023-02-01T00:08:32.571Z,59.31
2023-02-01T00:11:02.193Z,59.67
2023-02-01T00:13:31.824Z,59.30
2023-02-01T00:16:08.202Z,59.68
2023-02-01T00:18:36.472Z,59.45
2023-02-01T00:21:04.006Z,59.25
2023-02-01T00:23:35.571Z,58.68
2023-02-01T00:26:07.606Z,59.24
2023-02-01T00:28:35.406Z,59.59
2023-02-01T00:31:05.668Z,58.78
2023-02-01T00:33:34.836Z,58.79
2023-02-01T00:36:07.121Z,59.01
2023-02-01T00:38:37.331Z,59.60
2023-02-01T00:41:07.613Z,59.45
2023-02-01T00:43:35.957Z,59.35
2023-02-01T00:46:03.591Z,58.58
2023-02-01T00:48:31.270Z,58.72
2023-02-01T00:51:02.977Z,58.70
2023-02-01T00:53:31.248Z,59.58
2023-02-01T00:55:58.690Z,60.70
2023-02-01T00:58:26.963Z,60.44
2023-02-01T01:01:08.039Z,61.32
2023-02-01T01:03:38.807Z,60.77
2023-02-01T01:06:09.269Z,59.92
2023-02-01T01:08:37.935Z,59.85
2023-02-01T01:11:16.773Z,60.45
2023-02-01T01:13:45.031Z,60.29
2023-02-01T01:16:12.439Z,59.99
2023-02-01T01:18:41.030Z,58.85
2023-02-01T01:21:10.389Z,58.94
2023-02-01T01:23:38.257Z,58.56
2023-02-01T01:26:10.710Z,58.66
2023-02-01T01:28:38.190Z,58.78
2023-02-01T01:31:08.887Z,58.84
2023-02-01T01:33:37.041Z,59.56
2023-02-01T01:36:11.240Z,59.17
2023-02-01T01:38:40.594Z,59.61
2023-02-01T01:41:09.095Z,58.94
2023-02-01T01:43:48.033Z,59.45
2023-02-01T01:46:26.801Z,58.87
2023-02-01T01:49:04.324Z,58.59
2023-02-01T01:51:37.751Z,58.66
2023-02-01T01:54:27.461Z,58.94
2023-02-01T01:57:04.875Z,58.64
2023-02-01T01:59:34.731Z,58.94
2023-02-01T02:02:02.425Z,58.96
2023-02-01T02:04:30.201Z,59.27
2023-02-01T02:07:09.755Z,59.47
2023-02-01T02:09:38.499Z,58.97
2023-02-01T02:12:06.047Z,59.04
2023-02-01T02:14:35.426Z,59.68
2023-02-01T02:17:30.049Z,59.02
2023-02-01T02:19:57.387Z,59.92
2023-02-01T02:22:30.860Z,59.26
2023-02-01T02:25:04.265Z,58.86
2023-02-01T02:27:40.176Z,59.28
2023-02-01T02:30:28.865Z,59.02
2023-02-01T02:33:07.072Z,59.16
2023-02-01T02:36:06.319Z,59.48
2023-02-01T02:39:03.794Z,59.17
2023-02-01T02:42:14.517Z,59.45
2023-02-01T02:45:14.417Z,59.29
2023-02-01T02:48:02.304Z,59.41
2023-02-01T02:51:08.340Z,59.75
2023-02-01T02:54:10.593Z,59.81
2023-02-01T02:56:58.008Z,59.27
2023-02-01T02:59:46.557Z,59.52
2023-02-01T03:02:34.619Z,59.85
2023-02-01T03:05:02.505Z,59.68
2023-02-01T03:07:55.413Z,59.68
2023-02-01T03:10:36.153Z,59.41
2023-02-01T03:13:17.367Z,59.77
2023-02-01T03:15:59.009Z,60.24
2023-02-01T03:18:53.630Z,59.34
2023-02-01T03:21:39.414Z,58.88
2023-02-01T03:24:15.747Z,59.20
2023-02-01T03:26:51.604Z,58.98
2023-02-01T03:29:22.318Z,58.28
2023-02-01T03:31:50.121Z,58.79
2023-02-01T03:34:18.206Z,59.29
2023-02-01T03:36:48.463Z,58.79
2023-02-01T03:39:34.241Z,59.44
2023-02-01T03:42:06.280Z,59.49
2023-02-01T03:44:39.609Z,58.87
2023-02-01T03:47:15.539Z,58.85
2023-02-01T03:49:46.956Z,58.63
2023-02-01T03:52:29.984Z,58.60
2023-02-01T03:54:58.934Z,58.38
2023-02-01T03:57:36.101Z,58.78
2023-02-01T04:00:26.302Z,58.85
2023-02-01T04:02:56.153Z,58.57
2023-02-01T04:05:24.740Z,58.99
2023-02-01T04:08:03.237Z,58.83
2023-02-01T04:10:30.961Z,58.78
2023-02-01T04:12:58.591Z,58.72
2023-02-01T04:15:26.284Z,58.27
2023-02-01T04:17:53.676Z,58.16
2023-02-01T04:20:21.403Z,59.02
2023-02-01T04:22:48.899Z,58.65
2023-02-01T04:25:18.505Z,58.04
2023-02-01T04:27:47.813Z,58.01
2023-02-01T04:30:15.734Z,58.45
2023-02-01T04:32:43.377Z,58.10
2023-02-01T04:35:10.881Z,57.82
2023-02-01T04:37:38.601Z,58.47
2023-02-01T04:40:06.780Z,58.78
2023-02-01T04:42:34.370Z,59.41
2023-02-01T04:45:01.906Z,59.65
2023-02-01T04:47:29.904Z,59.25
2023-02-01T04:49:57.392Z,59.62
2023-02-01T04:52:24.849Z,59.39
2023-02-01T04:54:52.652Z,59.39
2023-02-01T04:57:19.940Z,59.62
2023-02-01T04:59:47.349Z,59.28
2023-02-01T05:02:14.710Z,58.65
2023-02-01T05:04:42.353Z,59.32
2023-02-01T05:07:09.857Z,59.59
2023-02-01T05:09:37.260Z,60.63
2023-02-01T05:12:24.153Z,60.32
2023-02-01T05:14:51.714Z,60.16
2023-02-01T05:17:19.056Z,60.33
2023-02-01T05:19:46.496Z,59.84
2023-02-01T05:22:13.873Z,59.79
2023-02-01T05:24:41.332Z,60.68
2023-02-01T05:27:08.791Z,60.58
2023-02-01T05:29:36.225Z,60.11
2023-02-01T05:32:20.808Z,60.42
2023-02-01T05:34:49.837Z,60.37
2023-02-01T05:37:17.456Z,61.04
2023-02-01T05:39:44.943Z,60.54
2023-02-01T05:42:12.323Z,60.93
2023-02-01T05:44:39.827Z,60.55
2023-02-01T05:47:07.355Z,60.21
2023-02-01T05:49:34.851Z,60.76
2023-02-01T05:52:02.252Z,60.92
2023-02-01T05:54:29.743Z,60.71
2023-02-01T05:56:57.092Z,61.81
2023-02-01T05:59:24.573Z,62.62
2023-02-01T06:01:51.989Z,62.89
2023-02-01T06:04:19.576Z,62.63
2023-02-01T06:06:46.897Z,61.88
2023-02-01T06:09:14.475Z,60.51
2023-02-01T06:11:42.713Z,59.57
2023-02-01T06:14:10.100Z,59.62
2023-02-01T06:16:37.488Z,59.27
2023-02-01T06:19:05.058Z,59.00
2023-02-01T06:21:32.771Z,58.43
2023-02-01T06:24:00.361Z,57.90
2023-02-01T06:26:29.878Z,56.74
2023-02-01T06:28:57.912Z,58.24
2023-02-01T06:31:26.531Z,58.08
2023-02-01T06:33:54.882Z,57.86
2023-02-01T06:36:22.504Z,56.90
2023-02-01T06:38:50.103Z,57.14
2023-02-01T06:41:17.860Z,57.65
2023-02-01T06:43:46.769Z,56.38
2023-02-01T06:46:14.817Z,56.01
2023-02-01T06:48:42.868Z,56.05
2023-02-01T06:51:25.883Z,56.59
2023-02-01T06:53:53.922Z,55.86
2023-02-01T06:56:21.559Z,55.43
2023-02-01T06:58:49.375Z,56.31
2023-02-01T07:01:17.911Z,56.81
2023-02-01T07:03:48.711Z,57.30
2023-02-01T07:06:16.112Z,57.47
2023-02-01T07:08:43.577Z,56.46
2023-02-01T07:11:15.313Z,55.35
2023-02-01T07:13:43.060Z,55.08
2023-02-01T07:16:13.181Z,54.67
2023-02-01T07:18:40.802Z,54.47
2023-02-01T07:21:08.303Z,54.02
2023-02-01T07:23:36.156Z,54.04
2023-02-01T07:26:06.436Z,55.07
2023-02-01T07:28:36.223Z,55.93
2023-02-01T07:31:10.827Z,55.57
2023-02-01T07:33:38.694Z,55.53
2023-02-01T07:36:08.673Z,54.96
2023-02-01T07:38:36.198Z,54.78
2023-02-01T07:41:06.098Z,54.66
2023-02-01T07:43:36.855Z,54.48
2023-02-01T07:46:06.034Z,53.82
2023-02-01T07:48:35.292Z,53.38
2023-02-01T07:51:06.021Z,53.50
2023-02-01T07:53:35.305Z,53.46
2023-02-01T07:56:03.983Z,52.73
2023-02-01T07:58:31.462Z,52.77
2023-02-01T08:01:17.240Z,53.18
2023-02-01T08:03:44.696Z,53.09
2023-02-01T08:06:12.318Z,54.12
2023-02-01T08:08:39.832Z,54.09
2023-02-01T08:11:08.303Z,54.17
2023-02-01T08:13:54.659Z,54.69
2023-02-01T08:16:24.542Z,54.84
2023-02-01T08:18:52.702Z,54.57
2023-02-01T08:21:26.966Z,54.32
2023-02-01T08:23:54.417Z,54.48
2023-02-01T08:26:24.643Z,54.27
2023-02-01T08:28:58.243Z,54.54
2023-02-01T08:31:27.946Z,54.04
2023-02-01T08:33:57.438Z,53.50
2023-02-01T08:36:26.622Z,54.45
2023-02-01T08:38:54.101Z,53.48
2023-02-01T08:46:13.059Z,53.39
2023-02-01T08:48:40.759Z,52.51
2023-02-01T08:51:13.300Z,53.32
2023-02-01T08:59:50.654Z,52.97
2023-02-01T09:02:20.332Z,53.77
2023-02-01T09:04:47.685Z,54.83
2023-02-01T09:07:15.220Z,54.63
2023-02-01T09:09:42.551Z,54.84
2023-02-01T09:12:10.081Z,54.66
2023-02-01T09:14:37.573Z,54.20
2023-02-01T09:17:06.595Z,54.51
2023-02-01T09:19:33.999Z,54.91
2023-02-01T09:22:01.593Z,54.27
2023-02-01T09:24:29.021Z,54.06
2023-02-01T09:26:56.706Z,55.04
2023-02-01T09:29:24.185Z,55.20
2023-02-01T09:32:02.825Z,55.82
2023-02-01T09:34:31.809Z,55.96
2023-02-01T09:37:14.412Z,56.21
2023-02-01T09:39:44.093Z,55.70
2023-02-01T09:42:49.301Z,56.34
2023-02-01T09:45:25.710Z,55.71
2023-02-01T09:47:59.030Z,56.41
2023-02-01T09:50:39.716Z,56.64
2023-02-01T09:53:28.441Z,56.07
2023-02-01T09:56:15.738Z,54.90
2023-02-01T09:58:49.674Z,55.71
2023-02-01T10:01:25.944Z,55.69
2023-02-01T10:04:06.759Z,55.19
2023-02-01T10:06:43.134Z,54.73
2023-02-01T10:09:35.297Z,54.51
2023-02-01T10:12:31.190Z,54.68
2023-02-01T10:15:26.975Z,55.78
2023-02-01T10:18:06.326Z,55.46
2023-02-01T10:20:58.097Z,55.34
2023-02-01T10:23:44.311Z,55.72
2023-02-01T10:26:21.423Z,55.30
2023-02-01T10:28:55.551Z,55.04
2023-02-01T10:31:26.418Z,54.84
2023-02-01T10:34:02.844Z,54.25
2023-02-01T10:36:42.491Z,54.77
2023-02-01T10:39:13.165Z,55.40
2023-02-01T10:41:44.191Z,54.95
2023-02-01T10:44:18.148Z,53.29
2023-02-01T10:46:45.575Z,54.52
2023-02-01T10:49:28.234Z,54.34
2023-02-01T10:52:16.951Z,54.36
2023-02-01T10:54:45.166Z,55.30
2023-02-01T10:57:29.648Z,55.18
2023-02-01T10:59:57.444Z,54.69
2023-02-01T11:02:36.082Z,53.19
2023-02-01T11:05:10.564Z,53.00
2023-02-01T11:07:39.371Z,52.20
2023-02-01T11:10:07.674Z,52.21
2023-02-01T11:12:38.870Z,52.06
2023-02-01T11:15:21.111Z,52.59
2023-02-01T11:17:55.943Z,51.93
2023-02-01T11:20:32.839Z,51.96
2023-02-01T11:23:00.994Z,52.33
2023-02-01T11:25:28.587Z,52.02
2023-02-01T11:27:57.954Z,52.17
2023-02-01T11:30:40.197Z,51.95
2023-02-01T11:33:13.999Z,51.62
2023-02-01T11:35:43.510Z,51.30
2023-02-01T11:38:31.483Z,51.44
2023-02-01T11:41:12.661Z,50.87
2023-02-01T11:43:59.275Z,52.47
2023-02-01T11:46:33.017Z,51.90
2023-02-01T11:49:22.506Z,51.74
2023-02-01T11:52:23.991Z,51.53
2023-02-01T11:55:13.087Z,51.80
2023-02-01T11:57:55.586Z,51.40
2023-02-01T12:00:59.302Z,52.01
2023-02-01T12:03:50.805Z,51.63
2023-02-01T12:06:30.729Z,51.98
2023-02-01T12:09:32.921Z,52.61
2023-02-01T12:12:06.434Z,52.64
2023-02-01T12:14:52.620Z,52.85
2023-02-01T12:18:17.136Z,51.91
2023-02-01T12:20:50.155Z,51.83
2023-02-01T12:23:39.301Z,52.04
2023-02-01T12:26:33.988Z,52.92
2023-02-01T12:29:13.127Z,52.67
2023-02-01T12:31:48.178Z,53.11
2023-02-01T12:34:39.974Z,52.91
2023-02-01T12:37:42.370Z,52.35
2023-02-01T12:40:23.730Z,53.37
2023-02-01T12:43:00.661Z,52.35
2023-02-01T12:45:34.290Z,52.00
2023-02-01T12:48:20.630Z,52.06
2023-02-01T12:51:00.961Z,51.32
2023-02-01T12:53:39.376Z,52.36
2023-02-01T12:56:14.751Z,52.88
2023-02-01T12:58:52.386Z,52.75
2023-02-01T13:01:31.991Z,52.55
2023-02-01T13:04:13.781Z,52.42
2023-02-01T13:06:57.357Z,52.17
2023-02-01T13:09:36.436Z,53.56
2023-02-01T13:12:30.847Z,54.15
2023-02-01T13:15:02.064Z,54.69
2023-02-01T13:17:34.350Z,55.03
2023-02-01T13:20:17.800Z,55.52
2023-02-01T13:23:09.260Z,55.78
2023-02-01T13:25:51.230Z,55.43
2023-02-01T13:28:31.115Z,56.25
2023-02-01T13:31:37.297Z,57.29
2023-02-01T13:34:39.754Z,56.61
2023-02-01T13:37:22.501Z,56.94
2023-02-01T13:40:23.859Z,57.88
2023-02-01T13:42:53.526Z,57.65
2023-02-01T13:45:26.479Z,57.46
2023-02-01T13:47:57.531Z,57.68
2023-02-01T13:50:30.147Z,57.94
2023-02-01T13:53:12.831Z,58.28
2023-02-01T13:55:43.474Z,57.98
2023-02-01T13:58:34.199Z,58.93
2023-02-01T14:01:22.979Z,58.63
2023-02-01T14:03:53.116Z,59.06
2023-02-01T14:06:31.157Z,59.32
2023-02-01T14:09:14.139Z,59.19
2023-02-01T14:11:58.906Z,58.30
2023-02-01T14:14:26.733Z,58.50
2023-02-01T14:16:54.073Z,58.33
2023-02-01T14:19:28.745Z,58.40
2023-02-01T14:22:01.771Z,58.47
2023-02-01T14:24:35.252Z,57.93
2023-02-01T14:27:16.817Z,57.09
2023-02-01T14:29:56.301Z,57.22
2023-02-01T14:32:32.010Z,56.68
2023-02-01T14:35:02.456Z,56.49
2023-02-01T14:37:34.444Z,56.90
2023-02-01T14:40:13.989Z,57.07
2023-02-01T14:42:44.408Z,56.66
2023-02-01T14:45:23.530Z,56.51
2023-02-01T14:47:52.522Z,56.30
2023-02-01T14:50:33.824Z,55.49
2023-02-01T14:53:01.278Z,55.13
2023-02-01T14:55:42.858Z,55.37
2023-02-01T14:58:23.622Z,54.15
2023-02-01T15:00:58.292Z,54.58
2023-02-01T15:03:41.280Z,54.74
2023-02-01T15:06:29.144Z,54.42
2023-02-01T15:08:58.678Z,54.42
2023-02-01T15:11:26.017Z,54.33
2023-02-01T15:13:55.851Z,53.99
2023-02-01T15:16:26.807Z,54.00
2023-02-01T15:19:12.158Z,53.26
2023-02-01T15:21:51.721Z,53.37
2023-02-01T15:24:25.756Z,54.45
2023-02-01T15:26:54.682Z,53.34
2023-02-01T15:29:28.740Z,53.56
2023-02-01T15:31:56.752Z,53.18
2023-02-01T15:34:24.191Z,52.99
2023-02-01T15:37:02.967Z,52.68
2023-02-01T15:39:32.561Z,52.73
2023-02-01T15:42:10.335Z,52.99
2023-02-01T15:44:47.429Z,53.19
2023-02-01T15:47:17.992Z,53.34
2023-02-01T15:49:51.228Z,52.54
2023-02-01T15:52:40.504Z,53.21
2023-02-01T15:55:43.654Z,52.81
2023-02-01T15:58:20.243Z,53.62
2023-02-01T16:00:54.468Z,53.12
2023-02-01T16:03:41.517Z,53.28
2023-02-01T16:06:24.551Z,53.04
2023-02-01T16:08:55.315Z,52.28
2023-02-01T16:11:34.169Z,52.17
2023-02-01T16:14:02.768Z,52.70
2023-02-01T16:16:31.005Z,52.68
2023-02-01T16:18:58.596Z,52.13
2023-02-01T16:21:26.096Z,52.21
2023-02-01T16:23:54.978Z,52.27
2023-02-01T16:26:22.746Z,51.71
2023-02-01T16:28:50.308Z,51.67
2023-02-01T16:31:22.789Z,51.85
2023-02-01T16:33:51.922Z,51.81
2023-02-01T16:36:19.829Z,52.01
2023-02-01T16:38:50.717Z,51.60
2023-02-01T16:41:23.189Z,51.66
2023-02-01T16:43:52.832Z,51.64
2023-02-01T16:46:27.074Z,51.73
2023-02-01T16:48:57.481Z,51.60
2023-02-01T16:51:28.433Z,51.65
2023-02-01T16:53:55.992Z,51.46
2023-02-01T16:56:27.304Z,53.65
2023-02-01T16:58:55.585Z,52.53
2023-02-01T17:01:23.634Z,52.60
2023-02-01T17:03:51.379Z,53.58
2023-02-01T17:06:25.447Z,52.82
2023-02-01T17:08:56.236Z,52.64
2023-02-01T17:11:23.831Z,52.66
2023-02-01T17:13:51.773Z,52.47
2023-02-01T17:16:19.214Z,52.25
2023-02-01T17:19:08.402Z,51.00
2023-02-01T17:21:45.752Z,52.26
2023-02-01T17:24:15.587Z,52.66
2023-02-01T17:26:44.623Z,51.72
2023-02-01T17:29:12.944Z,52.16
2023-02-01T17:31:44.387Z,52.00
2023-02-01T17:34:17.240Z,52.42
2023-02-01T17:36:47.002Z,53.38
2023-02-01T17:39:36.390Z,52.42
2023-02-01T17:42:06.043Z,52.92
2023-02-01T17:44:33.664Z,53.38
2023-02-01T17:47:01.088Z,52.46
2023-02-01T17:49:31.396Z,52.80
2023-02-01T17:51:58.908Z,52.73
2023-02-01T17:54:26.998Z,52.25
2023-02-01T17:56:54.421Z,52.37
2023-02-01T17:59:21.908Z,52.82
2023-02-01T18:01:49.728Z,53.11
2023-02-01T18:04:20.129Z,52.74
2023-02-01T18:06:47.532Z,52.97
2023-02-01T18:09:14.996Z,52.98
2023-02-01T18:11:42.939Z,53.40
2023-02-01T18:14:16.301Z,53.60
2023-02-01T18:16:43.911Z,52.82
2023-02-01T18:19:11.534Z,52.80
2023-02-01T18:21:42.655Z,52.81
2023-02-01T18:24:13.589Z,52.51
2023-02-01T18:26:41.893Z,52.32
2023-02-01T18:29:09.695Z,52.98
2023-02-01T18:31:44.862Z,53.50
2023-02-01T18:34:17.501Z,53.08
2023-02-01T18:36:44.914Z,54.08
2023-02-01T18:39:12.349Z,52.92
2023-02-01T18:41:40.803Z,53.43
2023-02-01T18:44:15.581Z,53.92
2023-02-01T18:46:43.662Z,54.38
2023-02-01T18:49:14.211Z,53.46
2023-02-01T18:51:43.466Z,53.03
2023-02-01T18:54:12.529Z,53.60
2023-02-01T18:56:40.861Z,54.11
2023-02-01T18:59:15.500Z,54.11
2023-02-01T19:01:44.829Z,53.98
2023-02-01T19:04:16.988Z,54.27
2023-02-01T19:06:50.229Z,54.10
2023-02-01T19:09:17.752Z,53.99
2023-02-01T19:11:45.441Z,53.47
2023-02-01T19:14:12.757Z,52.92
2023-02-01T19:16:40.213Z,52.77
2023-02-01T19:19:07.761Z,53.55
2023-02-01T19:21:35.259Z,53.06
2023-02-01T19:24:02.677Z,53.39
2023-02-01T19:26:30.158Z,52.96
2023-02-01T19:28:58.940Z,52.48
2023-02-01T19:31:26.387Z,52.20
2023-02-01T19:33:55.285Z,52.52
2023-02-01T19:36:22.831Z,51.97
2023-02-01T19:38:50.238Z,51.87
2023-02-01T19:41:17.714Z,52.28
2023-02-01T19:43:45.222Z,52.04
2023-02-01T19:46:12.915Z,51.30
2023-02-01T19:48:40.431Z,51.56
2023-02-01T19:51:08.810Z,51.60
2023-02-01T19:53:36.313Z,53.02
2023-02-01T19:56:03.854Z,52.58
2023-02-01T19:58:31.259Z,52.05
2023-02-01T20:00:59.870Z,52.08
2023-02-01T20:03:27.925Z,51.82
2023-02-01T20:05:57.413Z,52.03
2023-02-01T20:08:25.741Z,53.21
2023-02-01T20:10:53.348Z,53.15
2023-02-01T20:13:20.923Z,53.28
2023-02-01T20:15:48.285Z,53.31
2023-02-01T20:18:15.761Z,53.68
2023-02-01T20:20:43.110Z,53.58
2023-02-01T20:23:11.211Z,53.48
2023-02-01T20:25:39.771Z,54.16
2023-02-01T20:28:07.218Z,53.42
2023-02-01T20:30:34.641Z,53.30
2023-02-01T20:33:02.295Z,52.98
2023-02-01T20:35:29.727Z,53.96
2023-02-01T20:38:02.025Z,54.29
2023-02-01T20:40:31.234Z,54.65
2023-02-01T20:42:58.840Z,53.61
2023-02-01T20:45:27.389Z,54.05
2023-02-01T20:47:55.454Z,54.63
2023-02-01T20:50:22.901Z,54.56
2023-02-01T20:52:50.382Z,55.26
2023-02-01T20:55:17.904Z,55.87
2023-02-01T20:57:45.327Z,54.79
2023-02-01T21:00:13.443Z,54.29
2023-02-01T21:02:41.151Z,54.00
2023-02-01T21:05:09.465Z,54.09
2023-02-01T21:07:38.073Z,53.94
2023-02-01T21:10:06.719Z,54.17
2023-02-01T21:12:34.485Z,53.67
2023-02-01T21:15:01.859Z,54.29
2023-02-01T21:17:31.920Z,53.80
2023-02-01T21:20:00.070Z,53.70
2023-02-01T21:22:27.484Z,54.09
2023-02-01T21:24:55.442Z,53.45
2023-02-01T21:27:22.857Z,53.41
2023-02-01T21:29:50.340Z,53.52
2023-02-01T21:32:17.765Z,54.15
2023-02-01T21:34:45.250Z,53.88
2023-02-01T21:37:12.571Z,54.05
2023-02-01T21:39:40.086Z,53.87
2023-02-01T21:42:18.412Z,53.58
2023-02-01T21:44:47.729Z,53.21
2023-02-01T21:47:17.786Z,52.81
2023-02-01T21:49:47.011Z,53.57
2023-02-01T21:52:17.304Z,53.49
2023-02-01T21:54:45.346Z,54.46
2023-02-01T21:57:13.027Z,54.41
2023-02-01T21:59:41.496Z,54.37
2023-02-01T22:02:16.886Z,54.32
2023-02-01T22:04:45.020Z,54.23
2023-02-01T22:07:12.483Z,54.71
2023-02-01T22:09:40.631Z,55.02
2023-02-01T22:12:10.105Z,54.97
2023-02-01T22:14:37.716Z,54.81
2023-02-01T22:17:05.057Z,54.86
2023-02-01T22:19:32.538Z,54.09
2023-02-01T22:21:59.934Z,54.09
2023-02-01T22:24:27.514Z,54.71
2023-02-01T22:26:56.227Z,54.66
2023-02-01T22:29:42.007Z,54.76
2023-02-01T22:32:09.652Z,55.55
2023-02-01T22:34:37.165Z,55.47
2023-02-01T22:37:04.563Z,56.41
2023-02-01T22:39:32.038Z,55.55
2023-02-01T22:41:59.416Z,56.04
2023-02-01T22:44:26.890Z,56.14
2023-02-01T22:46:54.267Z,55.50
2023-02-01T22:49:21.793Z,56.06
2023-02-01T22:51:51.120Z,55.50
2023-02-01T22:54:23.165Z,57.34
2023-02-01T22:56:50.615Z,56.87
2023-02-01T22:59:18.544Z,57.08
2023-02-01T23:01:46.047Z,56.81
2023-02-01T23:04:15.173Z,56.88
2023-02-01T23:06:42.669Z,57.13
2023-02-01T23:09:22.522Z,57.21
2023-02-01T23:11:49.994Z,57.48
2023-02-01T23:14:17.772Z,57.45
2023-02-01T23:16:47.001Z,56.29
2023-02-01T23:19:14.892Z,56.82
2023-02-01T23:21:42.546Z,55.77
2023-02-01T23:24:11.087Z,55.85
2023-02-01T23:26:38.523Z,56.12
2023-02-01T23:29:06.205Z,56.04
2023-02-01T23:31:35.750Z,56.19
2023-02-01T23:34:04.517Z,56.42
2023-02-01T23:36:33.713Z,56.84
2023-02-01T23:39:01.982Z,56.53
2023-02-01T23:41:30.308Z,56.49
2023-02-01T23:44:01.280Z,56.62
2023-02-01T23:46:31.947Z,56.22
2023-02-01T23:49:00.830Z,56.03
2023-02-01T23:51:28.672Z,55.88
2023-02-01T23:53:56.736Z,56.64
2023-02-01T23:56:27.338Z,56.38
2023-02-01T23:58:57.055Z,56.28
